sensor_id;sensor_type;location;lat;lon;timestamp;temperature;humidity
24682;DHT22;12802;53.390;-2.328;2023-02-28T00:00:13;7.20;99.90
24682;DHT22;12802;53.390;-2.328;2023-02-28T00:02:41;7.20;99.90
24682;DHT22;12802;53.390;-2.328;2023-02-28T00:05:08;7.30;99.90
24682;DHT22;12802;53.390;-2.328;2023-02-28T00:07:34;7.30;99.90
24682;DHT22;12802;53.390;-2.328;2023-02-28T00:10:00;7.20;99.90
24682;DHT22;12802;53.390;-2.328;2023-02-28T00:12:26;7.10;99.90
24682;DHT22;12802;53.390;-2.328;2023-02-28T00:14:52;7.10;99.90
24682;DHT22;12802;53.390;-2.328;2023-02-28T00:17:19;7.20;99.90
24682;DHT22;12802;53.390;-2.328;2023-02-28T00:19:50;7.20;99.90
24682;DHT22;12802;53.390;-2.328;2023-02-28T00:22:18;7.20;99.90
24682;DHT22;12802;53.390;-2.328;2023-02-28T00:24:44;7.20;99.90
24682;DHT22;12802;53.390;-2.328;2023-02-28T00:27:10;7.20;99.90
24682;DHT22;12802;53.390;-2.328;2023-02-28T00:29:36;7.30;99.90
24682;DHT22;12802;53.390;-2.328;2023-02-28T00:32:03;7.30;99.90
24682;DHT22;12802;53.390;-2.328;2023-02-28T00:34:30;7.30;99.90
24682;DHT22;12802;53.390;-2.328;2023-02-28T00:36:55;7.20;99.90
24682;DHT22;12802;53.390;-2.328;2023-02-28T00:39:22;7.20;99.90
24682;DHT22;12802;53.390;-2.328;2023-02-28T00:41:48;7.20;99.90
24682;DHT22;12802;53.390;-2.328;2023-02-28T00:44:13;7.10;99.90
24682;DHT22;12802;53.390;-2.328;2023-02-28T00:46:39;7.10;99.90
24682;DHT22;12802;53.390;-2.328;2023-02-28T00:49:05;7.20;99.90
24682;DHT22;12802;53.390;-2.328;2023-02-28T00:51:31;7.20;99.90
24682;DHT22;12802;53.390;-2.328;2023-02-28T00:53:56;7.20;99.90
24682;DHT22;12802;53.390;-2.328;2023-02-28T00:56:23;7.10;99.90
24682;DHT22;12802;53.390;-2.328;2023-02-28T00:58:49;7.20;99.90
24682;DHT22;12802;53.390;-2.328;2023-02-28T01:01:14;7.10;99.90
24682;DHT22;12802;53.390;-2.328;2023-02-28T01:03:40;7.10;99.90
24682;DHT22;12802;53.390;-2.328;2023-02-28T01:06:06;7.10;99.90
24682;DHT22;12802;53.390;-2.328;2023-02-28T01:08:32;7.10;99.90
24682;DHT22;12802;53.390;-2.328;2023-02-28T01:10:58;6.90;99.90
24682;DHT22;12802;53.390;-2.328;2023-02-28T01:13:32;6.80;99.90
24682;DHT22;12802;53.390;-2.328;2023-02-28T01:15:58;6.90;99.90
24682;DHT22;12802;53.390;-2.328;2023-02-28T01:18:24;6.90;99.90
24682;DHT22;12802;53.390;-2.328;2023-02-28T01:20:50;6.90;99.90
24682;DHT22;12802;53.390;-2.328;2023-02-28T01:23:19;7.00;99.90
24682;DHT22;12802;53.390;-2.328;2023-02-28T01:25:46;6.90;99.90
24682;DHT22;12802;53.390;-2.328;2023-02-28T01:28:11;6.90;99.90
24682;DHT22;12802;53.390;-2.328;2023-02-28T01:30:37;6.80;99.90
24682;DHT22;12802;53.390;-2.328;2023-02-28T01:33:03;6.80;99.90
24682;DHT22;12802;53.390;-2.328;2023-02-28T01:35:32;6.90;99.90
24682;DHT22;12802;53.390;-2.328;2023-02-28T01:37:59;6.80;99.90
24682;DHT22;12802;53.390;-2.328;2023-02-28T01:40:24;6.90;99.90
24682;DHT22;12802;53.390;-2.328;2023-02-28T01:42:50;6.80;99.90
24682;DHT22;12802;53.390;-2.328;2023-02-28T01:45:35;6.80;99.90
24682;DHT22;12802;53.390;-2.328;2023-02-28T01:48:05;6.80;99.90
24682;DHT22;12802;53.390;-2.328;2023-02-28T01:50:36;6.80;99.90
24682;DHT22;12802;53.390;-2.328;2023-02-28T01:53:06;6.70;99.90
24682;DHT22;12802;53.390;-2.328;2023-02-28T01:55:36;6.70;99.90
24682;DHT22;12802;53.390;-2.328;2023-02-28T01:58:04;6.80;99.90
24682;DHT22;12802;53.390;-2.328;2023-02-28T02:00:32;6.80;99.90
24682;DHT22;12802;53.390;-2.328;2023-02-28T02:03:08;6.70;99.90
24682;DHT22;12802;53.390;-2.328;2023-02-28T02:05:37;6.70;99.90
24682;DHT22;12802;53.390;-2.328;2023-02-28T02:08:15;6.70;99.90
24682;DHT22;12802;53.390;-2.328;2023-02-28T02:10:52;6.60;99.90
24682;DHT22;12802;53.390;-2.328;2023-02-28T02:16:04;6.60;99.90
24682;DHT22;12802;53.390;-2.328;2023-02-28T02:33:09;6.50;99.90
24682;DHT22;12802;53.390;-2.328;2023-02-28T02:36:02;6.50;99.90
24682;DHT22;12802;53.390;-2.328;2023-02-28T02:44:12;6.50;99.90
24682;DHT22;12802;53.390;-2.328;2023-02-28T02:46:45;6.50;99.90
24682;DHT22;12802;53.390;-2.328;2023-02-28T02:49:17;6.50;99.90
24682;DHT22;12802;53.390;-2.328;2023-02-28T02:51:47;6.40;99.90
24682;DHT22;12802;53.390;-2.328;2023-02-28T02:54:22;6.50;99.90
24682;DHT22;12802;53.390;-2.328;2023-02-28T02:56:49;6.40;99.90
24682;DHT22;12802;53.390;-2.328;2023-02-28T02:59:19;6.30;99.90
24682;DHT22;12802;53.390;-2.328;2023-02-28T03:01:55;6.30;99.90
24682;DHT22;12802;53.390;-2.328;2023-02-28T03:04:24;6.30;99.90
24682;DHT22;12802;53.390;-2.328;2023-02-28T03:06:53;6.30;99.90
24682;DHT22;12802;53.390;-2.328;2023-02-28T03:09:22;6.20;99.90
24682;DHT22;12802;53.390;-2.328;2023-02-28T03:11:49;6.20;99.90
24682;DHT22;12802;53.390;-2.328;2023-02-28T03:14:40;6.30;99.90
24682;DHT22;12802;53.390;-2.328;2023-02-28T03:22:33;6.20;99.90
24682;DHT22;12802;53.390;-2.328;2023-02-28T03:31:04;6.20;99.90
24682;DHT22;12802;53.390;-2.328;2023-02-28T03:33:49;6.20;99.90
24682;DHT22;12802;53.390;-2.328;2023-02-28T03:36:24;6.20;99.90
24682;DHT22;12802;53.390;-2.328;2023-02-28T03:39:07;6.20;99.90
24682;DHT22;12802;53.390;-2.328;2023-02-28T03:41:55;6.20;99.90
24682;DHT22;12802;53.390;-2.328;2023-02-28T03:44:41;6.20;99.90
24682;DHT22;12802;53.390;-2.328;2023-02-28T03:47:14;6.20;99.90
24682;DHT22;12802;53.390;-2.328;2023-02-28T03:49:52;6.10;99.90
24682;DHT22;12802;53.390;-2.328;2023-02-28T03:52:22;6.10;99.90
24682;DHT22;12802;53.390;-2.328;2023-02-28T03:54:51;6.10;99.90
24682;DHT22;12802;53.390;-2.328;2023-02-28T03:57:26;6.00;99.90
24682;DHT22;12802;53.390;-2.328;2023-02-28T03:59:58;6.00;99.90
24682;DHT22;12802;53.390;-2.328;2023-02-28T04:02:25;6.10;99.90
24682;DHT22;12802;53.390;-2.328;2023-02-28T04:04:51;6.00;99.90
24682;DHT22;12802;53.390;-2.328;2023-02-28T04:07:18;6.00;99.90
24682;DHT22;12802;53.390;-2.328;2023-02-28T04:09:44;6.00;99.90
24682;DHT22;12802;53.390;-2.328;2023-02-28T04:12:10;5.90;99.90
24682;DHT22;12802;53.390;-2.328;2023-02-28T04:14:36;5.90;99.90
24682;DHT22;12802;53.390;-2.328;2023-02-28T04:17:02;6.00;99.90
24682;DHT22;12802;53.390;-2.328;2023-02-28T04:19:28;6.10;99.90
24682;DHT22;12802;53.390;-2.328;2023-02-28T04:21:54;6.10;99.90
24682;DHT22;12802;53.390;-2.328;2023-02-28T04:24:25;6.10;99.90
24682;DHT22;12802;53.390;-2.328;2023-02-28T04:26:54;6.10;99.90
24682;DHT22;12802;53.390;-2.328;2023-02-28T04:29:28;6.00;99.90
24682;DHT22;12802;53.390;-2.328;2023-02-28T04:31:54;6.00;99.90
24682;DHT22;12802;53.390;-2.328;2023-02-28T04:34:23;6.00;99.90
24682;DHT22;12802;53.390;-2.328;2023-02-28T04:36:50;6.00;99.90
24682;DHT22;12802;53.390;-2.328;2023-02-28T04:39:17;6.00;99.90
24682;DHT22;12802;53.390;-2.328;2023-02-28T04:41:44;6.00;99.90
24682;DHT22;12802;53.390;-2.328;2023-02-28T04:44:11;6.00;99.90
24682;DHT22;12802;53.390;-2.328;2023-02-28T04:46:37;6.00;99.90
24682;DHT22;12802;53.390;-2.328;2023-02-28T04:49:02;6.00;99.90
24682;DHT22;12802;53.390;-2.328;2023-02-28T04:51:28;6.00;99.90
24682;DHT22;12802;53.390;-2.328;2023-02-28T04:53:54;6.00;99.90
24682;DHT22;12802;53.390;-2.328;2023-02-28T04:56:21;6.00;99.90
24682;DHT22;12802;53.390;-2.328;2023-02-28T04:58:47;6.00;99.90
24682;DHT22;12802;53.390;-2.328;2023-02-28T05:01:29;6.00;99.90
24682;DHT22;12802;53.390;-2.328;2023-02-28T05:03:57;5.90;99.90
24682;DHT22;12802;53.390;-2.328;2023-02-28T05:06:25;5.90;99.90
24682;DHT22;12802;53.390;-2.328;2023-02-28T05:08:52;5.90;99.90
24682;DHT22;12802;53.390;-2.328;2023-02-28T05:11:27;5.90;99.90
24682;DHT22;12802;53.390;-2.328;2023-02-28T05:13:55;6.00;99.90
24682;DHT22;12802;53.390;-2.328;2023-02-28T05:16:21;6.00;99.90
24682;DHT22;12802;53.390;-2.328;2023-02-28T05:18:47;6.00;99.90
24682;DHT22;12802;53.390;-2.328;2023-02-28T05:21:28;6.00;99.90
24682;DHT22;12802;53.390;-2.328;2023-02-28T05:23:55;6.00;99.90
24682;DHT22;12802;53.390;-2.328;2023-02-28T05:26:22;5.90;99.90
24682;DHT22;12802;53.390;-2.328;2023-02-28T05:28:47;5.90;99.90
24682;DHT22;12802;53.390;-2.328;2023-02-28T05:31:14;5.80;99.90
24682;DHT22;12802;53.390;-2.328;2023-02-28T05:33:40;5.80;99.90
24682;DHT22;12802;53.390;-2.328;2023-02-28T05:36:06;5.80;99.90
24682;DHT22;12802;53.390;-2.328;2023-02-28T05:38:32;5.80;99.90
24682;DHT22;12802;53.390;-2.328;2023-02-28T05:40:58;5.80;99.90
24682;DHT22;12802;53.390;-2.328;2023-02-28T05:43:24;5.70;99.90
24682;DHT22;12802;53.390;-2.328;2023-02-28T05:45:50;5.70;99.90
24682;DHT22;12802;53.390;-2.328;2023-02-28T05:48:15;5.70;99.90
24682;DHT22;12802;53.390;-2.328;2023-02-28T05:50:42;5.70;99.90
24682;DHT22;12802;53.390;-2.328;2023-02-28T05:53:10;5.70;99.90
24682;DHT22;12802;53.390;-2.328;2023-02-28T05:55:36;5.70;99.90
24682;DHT22;12802;53.390;-2.328;2023-02-28T05:58:03;5.70;99.90
24682;DHT22;12802;53.390;-2.328;2023-02-28T06:00:28;5.70;99.90
24682;DHT22;12802;53.390;-2.328;2023-02-28T06:02:54;5.70;99.90
24682;DHT22;12802;53.390;-2.328;2023-02-28T06:05:23;5.60;99.90
24682;DHT22;12802;53.390;-2.328;2023-02-28T06:07:50;5.70;99.90
24682;DHT22;12802;53.390;-2.328;2023-02-28T06:10:16;5.70;99.90
24682;DHT22;12802;53.390;-2.328;2023-02-28T06:12:42;5.60;99.90
24682;DHT22;12802;53.390;-2.328;2023-02-28T06:15:12;5.70;99.90
24682;DHT22;12802;53.390;-2.328;2023-02-28T06:17:38;5.70;99.90
24682;DHT22;12802;53.390;-2.328;2023-02-28T06:20:05;5.70;99.90
24682;DHT22;12802;53.390;-2.328;2023-02-28T06:22:31;5.80;99.90
24682;DHT22;12802;53.390;-2.328;2023-02-28T06:24:57;5.80;99.90
24682;DHT22;12802;53.390;-2.328;2023-02-28T06:27:23;5.80;99.90
24682;DHT22;12802;53.390;-2.328;2023-02-28T06:29:49;5.80;99.90
24682;DHT22;12802;53.390;-2.328;2023-02-28T06:32:18;5.90;99.90
24682;DHT22;12802;53.390;-2.328;2023-02-28T06:34:45;5.80;99.90
24682;DHT22;12802;53.390;-2.328;2023-02-28T06:37:11;5.90;99.90
24682;DHT22;12802;53.390;-2.328;2023-02-28T06:39:36;5.90;99.90
24682;DHT22;12802;53.390;-2.328;2023-02-28T06:42:03;5.80;99.90
24682;DHT22;12802;53.390;-2.328;2023-02-28T06:44:28;5.80;99.90
24682;DHT22;12802;53.390;-2.328;2023-02-28T06:47:01;5.80;99.90
24682;DHT22;12802;53.390;-2.328;2023-02-28T06:49:34;5.70;99.90
24682;DHT22;12802;53.390;-2.328;2023-02-28T06:52:01;5.80;99.90
24682;DHT22;12802;53.390;-2.328;2023-02-28T06:54:27;5.80;99.90
24682;DHT22;12802;53.390;-2.328;2023-02-28T06:56:53;5.90;99.90
24682;DHT22;12802;53.390;-2.328;2023-02-28T06:59:20;5.90;99.90
24682;DHT22;12802;53.390;-2.328;2023-02-28T07:01:46;5.90;99.90
24682;DHT22;12802;53.390;-2.328;2023-02-28T07:04:11;5.90;99.90
24682;DHT22;12802;53.390;-2.328;2023-02-28T07:06:38;5.90;99.90
24682;DHT22;12802;53.390;-2.328;2023-02-28T07:09:04;5.80;99.90
24682;DHT22;12802;53.390;-2.328;2023-02-28T07:11:30;5.80;99.90
24682;DHT22;12802;53.390;-2.328;2023-02-28T07:13:57;5.80;99.90
24682;DHT22;12802;53.390;-2.328;2023-02-28T07:16:24;5.80;99.90
24682;DHT22;12802;53.390;-2.328;2023-02-28T07:18:52;5.80;99.90
24682;DHT22;12802;53.390;-2.328;2023-02-28T07:21:18;5.90;99.90
24682;DHT22;12802;53.390;-2.328;2023-02-28T07:23:44;6.00;99.90
24682;DHT22;12802;53.390;-2.328;2023-02-28T07:26:15;5.90;99.90
24682;DHT22;12802;53.390;-2.328;2023-02-28T07:28:42;5.90;99.90
24682;DHT22;12802;53.390;-2.328;2023-02-28T07:31:08;6.00;99.90
24682;DHT22;12802;53.390;-2.328;2023-02-28T07:33:35;6.00;99.90
24682;DHT22;12802;53.390;-2.328;2023-02-28T07:36:06;6.10;99.90
24682;DHT22;12802;53.390;-2.328;2023-02-28T07:38:37;6.00;99.90
24682;DHT22;12802;53.390;-2.328;2023-02-28T07:41:03;5.90;99.90
24682;DHT22;12802;53.390;-2.328;2023-02-28T07:43:30;5.80;99.90
24682;DHT22;12802;53.390;-2.328;2023-02-28T07:46:04;5.90;99.90
24682;DHT22;12802;53.390;-2.328;2023-02-28T07:48:31;5.90;99.90
24682;DHT22;12802;53.390;-2.328;2023-02-28T07:50:58;5.90;99.90
24682;DHT22;12802;53.390;-2.328;2023-02-28T07:53:24;5.80;99.90
24682;DHT22;12802;53.390;-2.328;2023-02-28T07:55:50;5.80;99.90
24682;DHT22;12802;53.390;-2.328;2023-02-28T07:58:16;5.90;99.90
24682;DHT22;12802;53.390;-2.328;2023-02-28T08:00:42;5.90;99.90
24682;DHT22;12802;53.390;-2.328;2023-02-28T08:03:12;6.00;99.90
24682;DHT22;12802;53.390;-2.328;2023-02-28T08:05:39;6.00;99.90
24682;DHT22;12802;53.390;-2.328;2023-02-28T08:08:06;6.00;99.90
24682;DHT22;12802;53.390;-2.328;2023-02-28T08:10:32;6.00;99.90
24682;DHT22;12802;53.390;-2.328;2023-02-28T08:12:58;6.00;99.90
24682;DHT22;12802;53.390;-2.328;2023-02-28T08:15:24;6.00;99.90
24682;DHT22;12802;53.390;-2.328;2023-02-28T08:17:49;5.90;99.90
24682;DHT22;12802;53.390;-2.328;2023-02-28T08:20:15;6.00;99.90
24682;DHT22;12802;53.390;-2.328;2023-02-28T08:22:41;6.00;99.90
24682;DHT22;12802;53.390;-2.328;2023-02-28T08:25:08;6.00;99.90
24682;DHT22;12802;53.390;-2.328;2023-02-28T08:27:34;6.00;99.90
24682;DHT22;12802;53.390;-2.328;2023-02-28T08:30:00;6.00;99.90
24682;DHT22;12802;53.390;-2.328;2023-02-28T08:32:26;6.00;99.90
24682;DHT22;12802;53.390;-2.328;2023-02-28T08:34:51;6.10;99.90
24682;DHT22;12802;53.390;-2.328;2023-02-28T08:37:17;6.20;99.90
24682;DHT22;12802;53.390;-2.328;2023-02-28T08:39:43;6.20;99.90
24682;DHT22;12802;53.390;-2.328;2023-02-28T08:42:09;6.20;99.90
24682;DHT22;12802;53.390;-2.328;2023-02-28T08:44:34;6.30;99.90
24682;DHT22;12802;53.390;-2.328;2023-02-28T08:47:00;6.30;99.90
24682;DHT22;12802;53.390;-2.328;2023-02-28T08:49:26;6.30;99.90
24682;DHT22;12802;53.390;-2.328;2023-02-28T08:51:52;6.20;99.90
24682;DHT22;12802;53.390;-2.328;2023-02-28T08:54:18;6.10;99.90
24682;DHT22;12802;53.390;-2.328;2023-02-28T08:56:46;6.20;99.90
24682;DHT22;12802;53.390;-2.328;2023-02-28T08:59:13;6.20;99.90
24682;DHT22;12802;53.390;-2.328;2023-02-28T09:01:39;6.30;99.90
24682;DHT22;12802;53.390;-2.328;2023-02-28T09:04:07;6.30;99.90
24682;DHT22;12802;53.390;-2.328;2023-02-28T09:06:34;6.40;99.90
24682;DHT22;12802;53.390;-2.328;2023-02-28T09:09:00;6.50;99.90
24682;DHT22;12802;53.390;-2.328;2023-02-28T09:11:27;6.50;99.90
24682;DHT22;12802;53.390;-2.328;2023-02-28T09:13:53;6.40;99.90
24682;DHT22;12802;53.390;-2.328;2023-02-28T09:16:22;6.50;99.90
24682;DHT22;12802;53.390;-2.328;2023-02-28T09:18:48;6.60;99.90
24682;DHT22;12802;53.390;-2.328;2023-02-28T09:21:16;6.70;99.90
24682;DHT22;12802;53.390;-2.328;2023-02-28T09:23:43;6.70;99.90
24682;DHT22;12802;53.390;-2.328;2023-02-28T09:26:14;6.90;99.90
24682;DHT22;12802;53.390;-2.328;2023-02-28T09:28:40;7.00;99.90
24682;DHT22;12802;53.390;-2.328;2023-02-28T09:31:06;7.00;99.90
24682;DHT22;12802;53.390;-2.328;2023-02-28T09:33:32;7.10;99.90
24682;DHT22;12802;53.390;-2.328;2023-02-28T09:36:01;7.20;99.90
24682;DHT22;12802;53.390;-2.328;2023-02-28T09:38:28;7.30;99.90
24682;DHT22;12802;53.390;-2.328;2023-02-28T09:40:57;7.40;99.90
24682;DHT22;12802;53.390;-2.328;2023-02-28T09:43:31;7.30;99.90
24682;DHT22;12802;53.390;-2.328;2023-02-28T09:48:48;7.20;99.90
24682;DHT22;12802;53.390;-2.328;2023-02-28T09:53:58;6.90;99.90
24682;DHT22;12802;53.390;-2.328;2023-02-28T09:56:36;7.00;99.90
24682;DHT22;12802;53.390;-2.328;2023-02-28T09:59:17;7.00;99.90
24682;DHT22;12802;53.390;-2.328;2023-02-28T10:10:41;7.10;99.90
24682;DHT22;12802;53.390;-2.328;2023-02-28T10:13:31;7.20;99.90
24682;DHT22;12802;53.390;-2.328;2023-02-28T10:16:11;7.20;99.90
24682;DHT22;12802;53.390;-2.328;2023-02-28T10:19:20;7.20;99.90
24682;DHT22;12802;53.390;-2.328;2023-02-28T10:21:41;7.40;99.90
24682;DHT22;12802;53.390;-2.328;2023-02-28T10:24:28;7.50;99.90
24682;DHT22;12802;53.390;-2.328;2023-02-28T10:26:59;7.60;99.90
24682;DHT22;12802;53.390;-2.328;2023-02-28T10:29:26;7.60;99.90
24682;DHT22;12802;53.390;-2.328;2023-02-28T10:31:52;7.50;99.90
24682;DHT22;12802;53.390;-2.328;2023-02-28T10:34:18;7.60;99.90
24682;DHT22;12802;53.390;-2.328;2023-02-28T10:36:44;7.50;99.90
24682;DHT22;12802;53.390;-2.328;2023-02-28T10:42:02;7.70;99.90
24682;DHT22;12802;53.390;-2.328;2023-02-28T10:44:28;7.80;99.90
24682;DHT22;12802;53.390;-2.328;2023-02-28T10:46:54;8.10;99.90
24682;DHT22;12802;53.390;-2.328;2023-02-28T10:49:26;8.40;99.90
24682;DHT22;12802;53.390;-2.328;2023-02-28T10:51:56;8.40;99.90
24682;DHT22;12802;53.390;-2.328;2023-02-28T10:54:33;8.30;99.90
24682;DHT22;12802;53.390;-2.328;2023-02-28T10:57:08;8.40;99.90
24682;DHT22;12802;53.390;-2.328;2023-02-28T10:59:39;8.40;99.90
24682;DHT22;12802;53.390;-2.328;2023-02-28T11:02:32;8.40;99.90
24682;DHT22;12802;53.390;-2.328;2023-02-28T11:04:58;8.30;99.90
24682;DHT22;12802;53.390;-2.328;2023-02-28T11:07:26;8.20;99.90
24682;DHT22;12802;53.390;-2.328;2023-02-28T11:09:57;8.30;99.90
24682;DHT22;12802;53.390;-2.328;2023-02-28T11:12:37;8.80;99.90
24682;DHT22;12802;53.390;-2.328;2023-02-28T11:15:18;9.20;99.90
24682;DHT22;12802;53.390;-2.328;2023-02-28T11:20:38;9.30;99.90
24682;DHT22;12802;53.390;-2.328;2023-02-28T11:23:12;9.00;99.90
24682;DHT22;12802;53.390;-2.328;2023-02-28T11:25:39;8.80;99.90
24682;DHT22;12802;53.390;-2.328;2023-02-28T11:28:34;8.70;99.90
24682;DHT22;12802;53.390;-2.328;2023-02-28T11:38:45;8.80;99.90
24682;DHT22;12802;53.390;-2.328;2023-02-28T11:52:36;8.60;99.90
24682;DHT22;12802;53.390;-2.328;2023-02-28T11:55:41;8.60;99.90
24682;DHT22;12802;53.390;-2.328;2023-02-28T11:58:37;8.60;99.90
24682;DHT22;12802;53.390;-2.328;2023-02-28T12:09:31;8.40;99.90
24682;DHT22;12802;53.390;-2.328;2023-02-28T12:12:14;8.20;99.90
24682;DHT22;12802;53.390;-2.328;2023-02-28T12:20:38;8.10;99.90
24682;DHT22;12802;53.390;-2.328;2023-02-28T12:28:40;8.30;99.90
24682;DHT22;12802;53.390;-2.328;2023-02-28T12:31:18;8.20;99.90
24682;DHT22;12802;53.390;-2.328;2023-02-28T12:33:50;8.20;99.90
24682;DHT22;12802;53.390;-2.328;2023-02-28T12:36:19;8.30;99.90
24682;DHT22;12802;53.390;-2.328;2023-02-28T12:39:01;8.30;99.90
24682;DHT22;12802;53.390;-2.328;2023-02-28T12:41:34;8.30;99.90
24682;DHT22;12802;53.390;-2.328;2023-02-28T12:44:12;8.40;99.90
24682;DHT22;12802;53.390;-2.328;2023-02-28T12:46:57;8.40;99.90
24682;DHT22;12802;53.390;-2.328;2023-02-28T12:49:46;8.20;99.90
24682;DHT22;12802;53.390;-2.328;2023-02-28T12:52:17;8.30;99.90
24682;DHT22;12802;53.390;-2.328;2023-02-28T12:54:48;8.40;99.90
24682;DHT22;12802;53.390;-2.328;2023-02-28T13:00:13;8.40;99.90
24682;DHT22;12802;53.390;-2.328;2023-02-28T13:05:59;8.60;99.90
24682;DHT22;12802;53.390;-2.328;2023-02-28T13:10:58;8.70;99.90
24682;DHT22;12802;53.390;-2.328;2023-02-28T13:13:26;8.60;99.90
24682;DHT22;12802;53.390;-2.328;2023-02-28T13:16:00;8.50;99.90
24682;DHT22;12802;53.390;-2.328;2023-02-28T13:18:46;8.50;99.90
24682;DHT22;12802;53.390;-2.328;2023-02-28T13:21:30;8.50;99.90
24682;DHT22;12802;53.390;-2.328;2023-02-28T13:24:08;8.40;99.90
24682;DHT22;12802;53.390;-2.328;2023-02-28T13:34:49;8.40;99.90
24682;DHT22;12802;53.390;-2.328;2023-02-28T13:45:22;8.50;99.90
24682;DHT22;12802;53.390;-2.328;2023-02-28T13:47:59;8.50;99.90
24682;DHT22;12802;53.390;-2.328;2023-02-28T13:53:11;8.60;99.90
24682;DHT22;12802;53.390;-2.328;2023-02-28T14:07:00;8.60;99.90
24682;DHT22;12802;53.390;-2.328;2023-02-28T14:09:36;8.50;99.90
24682;DHT22;12802;53.390;-2.328;2023-02-28T14:15:39;8.40;99.90
24682;DHT22;12802;53.390;-2.328;2023-02-28T14:18:25;8.50;99.90
24682;DHT22;12802;53.390;-2.328;2023-02-28T14:29:30;8.50;99.90
24682;DHT22;12802;53.390;-2.328;2023-02-28T14:32:27;8.40;99.90
24682;DHT22;12802;53.390;-2.328;2023-02-28T14:34:58;8.40;99.90
24682;DHT22;12802;53.390;-2.328;2023-02-28T14:37:30;8.30;99.90
24682;DHT22;12802;53.390;-2.328;2023-02-28T14:39:59;8.30;99.90
24682;DHT22;12802;53.390;-2.328;2023-02-28T14:42:34;8.30;99.90
24682;DHT22;12802;53.390;-2.328;2023-02-28T14:45:01;8.40;99.90
24682;DHT22;12802;53.390;-2.328;2023-02-28T14:47:30;8.30;99.90
24682;DHT22;12802;53.390;-2.328;2023-02-28T14:49:58;8.40;99.90
24682;DHT22;12802;53.390;-2.328;2023-02-28T14:52:28;8.40;99.90
24682;DHT22;12802;53.390;-2.328;2023-02-28T14:55:04;8.40;99.90
24682;DHT22;12802;53.390;-2.328;2023-02-28T14:57:40;8.50;99.90
24682;DHT22;12802;53.390;-2.328;2023-02-28T15:00:14;8.50;99.90
24682;DHT22;12802;53.390;-2.328;2023-02-28T15:02:41;8.50;99.90
24682;DHT22;12802;53.390;-2.328;2023-02-28T15:07:39;8.30;99.90
24682;DHT22;12802;53.390;-2.328;2023-02-28T15:10:24;8.20;99.90
24682;DHT22;12802;53.390;-2.328;2023-02-28T15:13:07;8.00;99.90
24682;DHT22;12802;53.390;-2.328;2023-02-28T15:21:20;8.10;99.90
24682;DHT22;12802;53.390;-2.328;2023-02-28T15:23:50;8.10;99.90
24682;DHT22;12802;53.390;-2.328;2023-02-28T15:26:20;8.20;99.90
24682;DHT22;12802;53.390;-2.328;2023-02-28T15:28:48;8.20;99.90
24682;DHT22;12802;53.390;-2.328;2023-02-28T15:31:31;8.20;99.90
24682;DHT22;12802;53.390;-2.328;2023-02-28T15:34:03;8.10;99.90
24682;DHT22;12802;53.390;-2.328;2023-02-28T15:36:31;8.10;99.90
24682;DHT22;12802;53.390;-2.328;2023-02-28T15:39:01;8.10;99.90
24682;DHT22;12802;53.390;-2.328;2023-02-28T15:41:29;8.10;99.90
24682;DHT22;12802;53.390;-2.328;2023-02-28T15:44:15;8.10;99.90
24682;DHT22;12802;53.390;-2.328;2023-02-28T15:47:16;8.20;99.90
24682;DHT22;12802;53.390;-2.328;2023-02-28T15:49:56;8.20;99.90
24682;DHT22;12802;53.390;-2.328;2023-02-28T15:52:31;8.20;99.90
24682;DHT22;12802;53.390;-2.328;2023-02-28T15:54:58;8.20;99.90
24682;DHT22;12802;53.390;-2.328;2023-02-28T15:57:25;8.30;99.90
24682;DHT22;12802;53.390;-2.328;2023-02-28T15:59:58;8.30;99.90
24682;DHT22;12802;53.390;-2.328;2023-02-28T16:02:37;8.30;99.90
24682;DHT22;12802;53.390;-2.328;2023-02-28T16:07:32;8.30;99.90
24682;DHT22;12802;53.390;-2.328;2023-02-28T16:09:59;8.30;99.90
24682;DHT22;12802;53.390;-2.328;2023-02-28T16:12:30;8.20;99.90
24682;DHT22;12802;53.390;-2.328;2023-02-28T16:14:59;8.20;99.90
24682;DHT22;12802;53.390;-2.328;2023-02-28T16:17:29;8.20;99.90
24682;DHT22;12802;53.390;-2.328;2023-02-28T16:19:56;8.30;99.90
24682;DHT22;12802;53.390;-2.328;2023-02-28T16:22:23;8.30;99.90
24682;DHT22;12802;53.390;-2.328;2023-02-28T16:24:49;8.20;99.90
24682;DHT22;12802;53.390;-2.328;2023-02-28T16:27:36;8.20;99.90
24682;DHT22;12802;53.390;-2.328;2023-02-28T16:30:03;8.20;99.90
24682;DHT22;12802;53.390;-2.328;2023-02-28T16:32:30;8.30;99.90
24682;DHT22;12802;53.390;-2.328;2023-02-28T16:34:56;8.20;99.90
24682;DHT22;12802;53.390;-2.328;2023-02-28T16:37:22;8.20;99.90
24682;DHT22;12802;53.390;-2.328;2023-02-28T16:39:48;8.20;99.90
24682;DHT22;12802;53.390;-2.328;2023-02-28T16:42:28;8.10;99.90
24682;DHT22;12802;53.390;-2.328;2023-02-28T16:44:55;8.20;99.90
24682;DHT22;12802;53.390;-2.328;2023-02-28T16:47:21;8.30;99.90
24682;DHT22;12802;53.390;-2.328;2023-02-28T16:49:47;8.20;99.90
24682;DHT22;12802;53.390;-2.328;2023-02-28T16:52:13;8.20;99.90
24682;DHT22;12802;53.390;-2.328;2023-02-28T16:54:41;8.10;99.90
24682;DHT22;12802;53.390;-2.328;2023-02-28T16:57:17;8.10;99.90
24682;DHT22;12802;53.390;-2.328;2023-02-28T16:59:44;8.20;99.90
24682;DHT22;12802;53.390;-2.328;2023-02-28T17:02:14;8.20;99.90
24682;DHT22;12802;53.390;-2.328;2023-02-28T17:04:40;8.20;99.90
24682;DHT22;12802;53.390;-2.328;2023-02-28T17:07:11;8.20;99.90
24682;DHT22;12802;53.390;-2.328;2023-02-28T17:09:37;8.20;99.90
24682;DHT22;12802;53.390;-2.328;2023-02-28T17:12:03;8.20;99.90
24682;DHT22;12802;53.390;-2.328;2023-02-28T17:14:29;8.20;99.90
24682;DHT22;12802;53.390;-2.328;2023-02-28T17:16:55;8.10;99.90
24682;DHT22;12802;53.390;-2.328;2023-02-28T17:19:21;8.10;99.90
24682;DHT22;12802;53.390;-2.328;2023-02-28T17:21:46;8.00;99.90
24682;DHT22;12802;53.390;-2.328;2023-02-28T17:24:12;8.10;99.90
24682;DHT22;12802;53.390;-2.328;2023-02-28T17:26:42;8.10;99.90
24682;DHT22;12802;53.390;-2.328;2023-02-28T17:29:17;8.00;99.90
24682;DHT22;12802;53.390;-2.328;2023-02-28T17:31:43;8.00;99.90
24682;DHT22;12802;53.390;-2.328;2023-02-28T17:34:09;8.00;99.90
24682;DHT22;12802;53.390;-2.328;2023-02-28T17:36:35;8.00;99.90
24682;DHT22;12802;53.390;-2.328;2023-02-28T17:39:04;8.00;99.90
24682;DHT22;12802;53.390;-2.328;2023-02-28T17:41:34;8.10;99.90
24682;DHT22;12802;53.390;-2.328;2023-02-28T17:44:00;8.10;99.90
24682;DHT22;12802;53.390;-2.328;2023-02-28T17:46:26;8.10;99.90
24682;DHT22;12802;53.390;-2.328;2023-02-28T17:48:54;8.10;99.90
24682;DHT22;12802;53.390;-2.328;2023-02-28T17:51:21;8.10;99.90
24682;DHT22;12802;53.390;-2.328;2023-02-28T17:53:48;8.10;99.90
24682;DHT22;12802;53.390;-2.328;2023-02-28T17:56:22;8.10;99.90
24682;DHT22;12802;53.390;-2.328;2023-02-28T17:58:55;8.20;99.90
24682;DHT22;12802;53.390;-2.328;2023-02-28T18:01:21;8.10;99.90
24682;DHT22;12802;53.390;-2.328;2023-02-28T18:03:48;8.10;99.90
24682;DHT22;12802;53.390;-2.328;2023-02-28T18:06:25;8.00;99.90
24682;DHT22;12802;53.390;-2.328;2023-02-28T18:08:52;7.90;99.90
24682;DHT22;12802;53.390;-2.328;2023-02-28T18:11:20;7.90;99.90
24682;DHT22;12802;53.390;-2.328;2023-02-28T18:13:51;8.00;99.90
24682;DHT22;12802;53.390;-2.328;2023-02-28T18:16:18;7.90;99.90
24682;DHT22;12802;53.390;-2.328;2023-02-28T18:18:44;8.00;99.90
24682;DHT22;12802;53.390;-2.328;2023-02-28T18:21:12;7.90;99.90